createdAt,value
2019-03-01T00:01:09.749Z,58.44
2019-03-01T00:03:38.559Z,58.33
2019-03-01T00:06:22.292Z,58.32
2019-03-01T00:08:53.817Z,58.51
2019-03-01T00:11:53.686Z,58.23
2019-03-01T00:14:36.830Z,58.33
2019-03-01T00:17:33.958Z,58.14
2019-03-01T00:20:14.320Z,58.17
2019-03-01T00:23:02.313Z,57.94
2019-03-01T00:25:36.402Z,57.93
2019-03-01T00:28:35.251Z,58.08
2019-03-01T00:31:24.907Z,58.46
2019-03-01T00:34:05.140Z,58.13
2019-03-01T00:36:53.156Z,58.60
2019-03-01T00:39:36.827Z,59.26
2019-03-01T00:42:23.543Z,59.27
2019-03-01T00:44:52.010Z,58.77
2019-03-01T00:47:20.567Z,58.97
2019-03-01T00:49:49.039Z,59.27
2019-03-01T00:52:17.656Z,59.76
2019-03-01T00:54:46.260Z,60.03
2019-03-01T00:57:14.891Z,60.00
2019-03-01T00:59:43.436Z,60.32
2019-03-01T01:02:12.045Z,60.42
2019-03-01T01:04:40.590Z,60.08
2019-03-01T01:07:09.155Z,61.08
2019-03-01T01:15:10.661Z,60.64
2019-03-01T01:17:39.234Z,60.75
2019-03-01T01:20:09.763Z,60.45
2019-03-01T01:22:38.382Z,60.52
2019-03-01T01:25:07.017Z,60.55
2019-03-01T01:27:35.586Z,60.54
2019-03-01T01:30:06.132Z,60.45
2019-03-01T01:32:34.697Z,60.14
2019-03-01T01:35:03.311Z,60.62
2019-03-01T01:37:31.877Z,60.09
2019-03-01T01:40:00.460Z,59.80
2019-03-01T01:42:29.044Z,59.84
2019-03-01T01:44:57.580Z,59.72
2019-03-01T01:47:26.134Z,59.80
2019-03-01T01:49:54.672Z,59.60
2019-03-01T01:52:23.248Z,59.30
2019-03-01T01:54:51.857Z,59.42
2019-03-01T01:57:20.404Z,59.30
2019-03-01T01:59:48.881Z,59.35
2019-03-01T02:02:17.496Z,59.72
2019-03-01T02:04:46.111Z,59.25
2019-03-01T02:07:14.727Z,58.76
2019-03-01T02:09:43.336Z,58.91
2019-03-01T02:12:11.870Z,59.13
2019-03-01T02:14:40.506Z,59.14
2019-03-01T02:17:09.042Z,59.49
2019-03-01T02:19:37.680Z,59.60
2019-03-01T02:22:06.284Z,59.20
2019-03-01T02:24:34.822Z,59.29
2019-03-01T02:27:20.674Z,59.07
2019-03-01T02:29:49.352Z,59.05
2019-03-01T02:32:26.528Z,58.70
2019-03-01T02:34:55.037Z,58.38
2019-03-01T02:37:23.571Z,58.41
2019-03-01T02:39:52.306Z,58.26
2019-03-01T02:42:20.854Z,58.42
2019-03-01T02:44:49.397Z,58.39
2019-03-01T02:47:17.973Z,58.75
2019-03-01T02:49:46.581Z,59.10
2019-03-01T02:52:15.120Z,58.90
2019-03-01T02:54:43.588Z,59.23
2019-03-01T02:57:12.146Z,59.86
2019-03-01T02:59:40.748Z,59.68
2019-03-01T03:02:09.384Z,59.91
2019-03-01T03:04:37.981Z,59.58
2019-03-01T03:07:08.260Z,59.05
2019-03-01T03:09:36.791Z,59.36
2019-03-01T03:12:05.388Z,59.50
2019-03-01T03:14:33.854Z,59.79
2019-03-01T03:17:02.946Z,60.21
2019-03-01T03:19:31.596Z,60.72
2019-03-01T03:22:00.057Z,61.20
2019-03-01T03:24:28.620Z,61.00
2019-03-01T03:26:57.162Z,60.96
2019-03-01T03:29:25.724Z,61.13
2019-03-01T03:31:54.290Z,61.14
2019-03-01T03:34:22.826Z,61.22
2019-03-01T03:36:51.376Z,61.20
2019-03-01T03:39:19.829Z,61.13
2019-03-01T03:41:48.472Z,60.92
2019-03-01T03:44:17.228Z,60.60
2019-03-01T03:46:45.773Z,60.91
2019-03-01T03:49:14.243Z,60.56
2019-03-01T03:51:42.808Z,60.75
2019-03-01T03:54:11.257Z,61.16
2019-03-01T03:56:39.880Z,60.77
2019-03-01T03:59:08.498Z,60.93
2019-03-01T04:01:37.120Z,61.14
2019-03-01T04:04:05.741Z,61.10
2019-03-01T04:06:34.347Z,61.07
2019-03-01T04:09:04.566Z,61.32
2019-03-01T04:11:33.208Z,61.56
2019-03-01T04:14:01.760Z,61.63
2019-03-01T04:16:30.366Z,61.68
2019-03-01T04:18:58.872Z,61.40
2019-03-01T04:21:27.574Z,61.63
2019-03-01T04:23:56.129Z,61.74
2019-03-01T04:26:24.680Z,61.83
2019-03-01T04:28:53.212Z,61.93
2019-03-01T04:31:21.688Z,62.09
2019-03-01T04:33:50.157Z,62.01
2019-03-01T04:36:18.702Z,61.88
2019-03-01T04:38:47.277Z,61.75
2019-03-01T04:41:15.744Z,61.57
2019-03-01T04:43:44.391Z,61.88
2019-03-01T04:46:12.846Z,61.93
2019-03-01T04:48:41.498Z,61.80
2019-03-01T04:51:10.539Z,61.68
2019-03-01T04:53:39.074Z,61.82
2019-03-01T04:56:07.691Z,61.76
2019-03-01T04:58:36.231Z,61.76
2019-03-01T05:01:05.222Z,61.75
2019-03-01T05:03:33.769Z,62.12
2019-03-01T05:06:02.409Z,62.24
2019-03-01T05:08:30.874Z,62.35
2019-03-01T05:10:59.478Z,62.57
2019-03-01T05:13:27.964Z,62.75
2019-03-01T05:15:56.462Z,62.67
2019-03-01T05:18:25.008Z,62.78
2019-03-01T05:20:53.550Z,62.96
2019-03-01T05:23:22.028Z,62.92
2019-03-01T05:25:50.567Z,63.37
2019-03-01T05:28:19.111Z,63.39
2019-03-01T05:30:47.657Z,63.88
2019-03-01T05:33:16.265Z,63.81
2019-03-01T05:35:44.883Z,64.17
2019-03-01T05:38:21.575Z,64.27
2019-03-01T05:40:43.730Z,64.79
2019-03-01T05:43:12.261Z,64.62
2019-03-01T05:45:40.730Z,65.04
2019-03-01T05:48:09.298Z,65.59
2019-03-01T05:50:37.902Z,66.02
2019-03-01T05:53:06.397Z,65.37
2019-03-01T05:55:34.928Z,65.67
2019-03-01T05:58:35.554Z,65.80
2019-03-01T06:01:13.197Z,66.13
2019-03-01T06:03:59.782Z,65.83
2019-03-01T06:06:40.188Z,66.22
2019-03-01T06:09:28.205Z,65.87
2019-03-01T06:12:19.130Z,65.99
2019-03-01T06:15:13.124Z,67.28
2019-03-01T06:18:00.830Z,66.45
2019-03-01T06:23:41.333Z,66.27
2019-03-01T06:26:18.700Z,66.63
2019-03-01T06:29:02.131Z,67.83
2019-03-01T06:31:54.888Z,67.02
2019-03-01T06:34:38.173Z,67.30
2019-03-01T06:37:24.804Z,67.08
2019-03-01T06:40:23.670Z,66.51
2019-03-01T06:42:57.805Z,66.42
2019-03-01T06:45:48.181Z,66.35
2019-03-01T06:48:18.392Z,66.36
2019-03-01T06:50:51.440Z,66.42
2019-03-01T06:53:19.990Z,66.03
2019-03-01T06:55:48.628Z,65.84
2019-03-01T06:58:20.047Z,65.24
2019-03-01T07:00:50.677Z,64.89
2019-03-01T07:03:19.389Z,64.51
2019-03-01T07:05:47.996Z,64.28
2019-03-01T07:08:16.535Z,63.89
2019-03-01T07:10:45.012Z,63.41
2019-03-01T07:13:13.494Z,62.63
2019-03-01T07:15:42.034Z,61.84
2019-03-01T07:18:10.721Z,61.72
2019-03-01T07:20:39.336Z,61.35
2019-03-01T07:23:07.799Z,60.85
2019-03-01T07:25:36.365Z,60.69
2019-03-01T07:28:04.976Z,60.69
2019-03-01T07:30:33.608Z,60.48
2019-03-01T07:33:02.176Z,59.90
2019-03-01T07:35:30.715Z,59.46
2019-03-01T07:37:59.231Z,59.24
2019-03-01T07:40:27.787Z,58.67
2019-03-01T07:42:56.413Z,58.53
2019-03-01T07:45:24.893Z,58.12
2019-03-01T07:47:53.365Z,57.66
2019-03-01T07:50:21.848Z,57.32
2019-03-01T07:52:50.386Z,56.87
2019-03-01T07:55:19.036Z,56.55
2019-03-01T07:57:49.759Z,56.29
2019-03-01T08:00:18.209Z,52.09
2019-03-01T08:02:46.850Z,54.68
2019-03-01T08:05:16.567Z,55.50
2019-03-01T08:07:55.302Z,55.03
2019-03-01T08:10:20.540Z,54.35
2019-03-01T08:12:47.431Z,53.96
2019-03-01T08:15:17.317Z,52.22
2019-03-01T08:17:45.991Z,52.94
2019-03-01T08:20:16.099Z,53.13
2019-03-01T08:22:48.682Z,53.33
2019-03-01T08:25:15.057Z,52.68
2019-03-01T08:27:46.346Z,51.96
2019-03-01T08:30:17.722Z,52.46
2019-03-01T08:32:46.363Z,52.11
2019-03-01T08:35:18.582Z,51.89
2019-03-01T08:37:49.828Z,51.09
2019-03-01T08:40:18.163Z,50.53
2019-03-01T08:42:47.103Z,50.54
2019-03-01T08:45:20.203Z,50.71
2019-03-01T08:47:49.161Z,50.21
2019-03-01T08:50:18.046Z,49.29
2019-03-01T08:52:47.200Z,47.37
2019-03-01T08:55:18.364Z,47.95
2019-03-01T08:57:46.929Z,47.39
2019-03-01T09:00:26.699Z,47.38
2019-03-01T09:02:56.628Z,47.51
2019-03-01T09:05:25.165Z,46.31
2019-03-01T09:07:53.712Z,45.42
2019-03-01T09:10:22.350Z,43.82
2019-03-01T09:12:50.964Z,43.63
2019-03-01T09:15:19.605Z,42.87
2019-03-01T09:17:48.181Z,41.67
2019-03-01T09:20:16.995Z,41.15
2019-03-01T09:22:45.733Z,40.38
2019-03-01T09:25:15.537Z,40.98
2019-03-01T09:27:44.119Z,41.81
2019-03-01T09:30:15.872Z,42.02
2019-03-01T09:32:44.478Z,41.97
2019-03-01T09:35:20.511Z,43.08
2019-03-01T09:37:49.020Z,42.88
2019-03-01T09:40:17.664Z,43.14
2019-03-01T09:42:47.404Z,42.93
2019-03-01T09:45:16.419Z,42.39
2019-03-01T09:47:44.897Z,41.72
2019-03-01T09:50:13.715Z,40.27
2019-03-01T09:52:42.261Z,39.44
2019-03-01T09:55:12.301Z,38.60
2019-03-01T09:57:40.914Z,37.19
2019-03-01T10:00:15.483Z,36.13
2019-03-01T10:02:44.025Z,36.03
2019-03-01T10:05:14.066Z,35.36
2019-03-01T10:07:42.678Z,34.60
2019-03-01T10:10:13.403Z,34.09
2019-03-01T10:12:42.031Z,33.27
2019-03-01T10:15:12.601Z,32.03
2019-03-01T10:17:41.249Z,31.13
2019-03-01T10:20:12.797Z,30.57
2019-03-01T10:22:41.420Z,29.52
2019-03-01T10:25:17.972Z,30.11
2019-03-01T10:27:46.556Z,30.79
2019-03-01T10:30:17.272Z,29.92
2019-03-01T10:32:45.878Z,30.13
2019-03-01T10:35:15.602Z,30.89
2019-03-01T10:37:44.309Z,31.19
2019-03-01T10:40:26.497Z,31.11
2019-03-01T10:42:55.105Z,30.67
2019-03-01T10:45:28.380Z,30.16
2019-03-01T10:47:56.985Z,29.37
2019-03-01T10:50:25.629Z,30.19
2019-03-01T10:52:54.243Z,29.89
2019-03-01T10:55:23.055Z,30.27
2019-03-01T10:57:51.612Z,30.57
2019-03-01T11:00:30.460Z,30.99
2019-03-01T11:02:59.434Z,31.01
2019-03-01T11:05:28.028Z,31.84
2019-03-01T11:07:57.145Z,31.92
2019-03-01T11:10:28.681Z,31.86
2019-03-01T11:12:57.217Z,32.36
2019-03-01T11:15:25.860Z,31.95
2019-03-01T11:17:54.469Z,33.00
2019-03-01T11:20:23.387Z,33.40
2019-03-01T11:22:52.045Z,33.83
2019-03-01T11:25:22.765Z,33.75
2019-03-01T11:27:51.308Z,34.43
2019-03-01T11:30:22.863Z,34.30
2019-03-01T11:32:51.468Z,34.41
2019-03-01T11:35:20.172Z,35.25
2019-03-01T11:37:48.851Z,35.04
2019-03-01T11:40:22.710Z,35.53
2019-03-01T11:42:51.321Z,35.60
2019-03-01T11:45:19.977Z,35.70
2019-03-01T11:47:48.602Z,35.69
2019-03-01T11:50:24.607Z,35.70
2019-03-01T11:52:53.625Z,36.62
2019-03-01T11:55:22.365Z,37.23
2019-03-01T11:57:51.075Z,37.57
2019-03-01T12:00:27.590Z,38.41
2019-03-01T12:02:56.223Z,39.24
2019-03-01T12:05:24.840Z,39.74
2019-03-01T12:07:53.490Z,39.84
2019-03-01T12:10:26.795Z,40.09
2019-03-01T12:12:55.448Z,40.25
2019-03-01T12:15:24.071Z,39.62
2019-03-01T12:17:52.690Z,40.17
2019-03-01T12:20:23.668Z,40.21
2019-03-01T12:22:52.247Z,40.87
2019-03-01T12:25:20.784Z,40.73
2019-03-01T12:27:49.391Z,40.57
2019-03-01T12:30:20.437Z,40.79
2019-03-01T12:32:49.085Z,41.42
2019-03-01T12:35:17.689Z,40.93
2019-03-01T12:37:46.317Z,41.12
2019-03-01T12:40:20.386Z,41.07
2019-03-01T12:42:48.927Z,41.50
2019-03-01T12:45:17.532Z,41.93
2019-03-01T12:47:46.158Z,42.16
2019-03-01T12:50:15.150Z,42.53
2019-03-01T12:52:44.057Z,42.88
2019-03-01T12:55:20.825Z,43.42
2019-03-01T12:57:49.467Z,43.21
2019-03-01T13:00:35.328Z,43.33
2019-03-01T13:03:05.068Z,43.49
2019-03-01T13:05:34.232Z,43.89
2019-03-01T13:08:02.864Z,44.42
2019-03-01T13:10:36.713Z,44.89
2019-03-01T13:13:08.411Z,44.68
2019-03-01T13:15:37.143Z,45.37
2019-03-01T13:18:05.714Z,45.49
2019-03-01T13:20:37.279Z,45.82
2019-03-01T13:23:06.134Z,45.88
2019-03-01T13:25:34.952Z,46.22
2019-03-01T13:28:03.550Z,46.60
2019-03-01T13:30:35.451Z,47.17
2019-03-01T13:33:03.633Z,47.10
2019-03-01T13:35:32.294Z,47.47
2019-03-01T13:38:00.871Z,47.38
2019-03-01T13:40:29.411Z,47.54
2019-03-01T13:42:57.957Z,48.28
2019-03-01T13:45:26.960Z,48.96
2019-03-01T13:47:55.555Z,49.46
2019-03-01T13:50:24.302Z,50.63
2019-03-01T13:52:52.918Z,51.25
2019-03-01T13:55:23.466Z,52.68
2019-03-01T13:57:51.978Z,51.96
2019-03-01T14:00:21.583Z,52.15
2019-03-01T14:02:50.392Z,52.74
2019-03-01T14:05:19.333Z,53.74
2019-03-01T14:07:48.783Z,53.83
2019-03-01T14:10:19.420Z,54.21
2019-03-01T14:12:48.051Z,54.98
2019-03-01T14:15:17.756Z,55.13
2019-03-01T14:17:46.402Z,55.40
2019-03-01T14:20:21.101Z,56.25
2019-03-01T14:22:49.874Z,55.89
2019-03-01T14:25:18.584Z,56.73
2019-03-01T14:27:47.207Z,57.77
2019-03-01T14:30:25.292Z,57.98
2019-03-01T14:32:56.885Z,59.04
2019-03-01T14:35:25.970Z,59.44
2019-03-01T14:37:55.332Z,59.77
2019-03-01T14:40:24.333Z,59.77
2019-03-01T14:42:52.943Z,60.23
2019-03-01T14:45:30.014Z,61.14
2019-03-01T14:47:58.552Z,60.78
2019-03-01T14:50:29.980Z,61.34
2019-03-01T14:52:59.021Z,61.97
2019-03-01T14:55:39.583Z,63.29
2019-03-01T14:58:18.957Z,63.68
2019-03-01T15:00:55.305Z,64.22
2019-03-01T15:03:35.646Z,64.37
2019-03-01T15:06:04.760Z,65.12
2019-03-01T15:08:33.476Z,64.99
2019-03-01T15:11:07.942Z,64.59
2019-03-01T15:13:35.890Z,65.53
2019-03-01T15:16:06.070Z,65.21
2019-03-01T15:18:35.174Z,65.46
2019-03-01T15:21:04.001Z,66.11
2019-03-01T15:23:32.641Z,66.14
2019-03-01T15:26:01.265Z,66.43
2019-03-01T15:28:29.874Z,65.78
2019-03-01T15:30:58.509Z,66.21
2019-03-01T15:33:27.048Z,66.97
2019-03-01T15:35:55.629Z,67.26
2019-03-01T15:38:27.687Z,67.10
2019-03-01T15:40:54.420Z,66.97
2019-03-01T15:43:22.917Z,67.10
2019-03-01T15:45:51.513Z,67.03
2019-03-01T15:48:20.079Z,66.82
2019-03-01T15:50:48.687Z,67.06
2019-03-01T15:53:17.257Z,67.34
2019-03-01T15:55:45.773Z,67.71
2019-03-01T15:58:14.388Z,67.62
2019-03-01T16:00:43.016Z,67.90
2019-03-01T16:03:11.647Z,67.62
2019-03-01T16:05:40.295Z,68.05
2019-03-01T16:08:09.252Z,68.28
2019-03-01T16:10:37.905Z,68.46
2019-03-01T16:13:11.618Z,67.83
2019-03-01T16:15:38.756Z,67.69
2019-03-01T16:18:07.240Z,68.24
2019-03-01T16:20:35.873Z,67.66
2019-03-01T16:23:04.514Z,67.87
2019-03-01T16:25:33.044Z,68.07
2019-03-01T16:28:01.627Z,67.93
2019-03-01T16:30:30.234Z,68.59
2019-03-01T16:32:58.701Z,68.19
2019-03-01T16:35:27.333Z,67.76
2019-03-01T16:37:57.957Z,67.74
2019-03-01T16:40:27.820Z,67.24
2019-03-01T16:42:56.427Z,66.95
2019-03-01T16:45:24.978Z,66.35
2019-03-01T16:47:53.540Z,66.60
2019-03-01T16:50:22.066Z,66.65
2019-03-01T16:52:50.686Z,67.11
2019-03-01T16:55:24.409Z,66.91
2019-03-01T16:57:52.292Z,66.62
2019-03-01T17:00:23.489Z,66.06
2019-03-01T17:03:03.847Z,66.08
2019-03-01T17:05:35.746Z,66.32
2019-03-01T17:08:05.770Z,66.81
2019-03-01T17:10:33.252Z,65.94
2019-03-01T17:13:01.859Z,65.50
2019-03-01T17:15:30.524Z,65.54
2019-03-01T17:17:59.149Z,65.79
2019-03-01T17:20:27.749Z,65.41
2019-03-01T17:22:59.805Z,65.36
2019-03-01T17:25:27.645Z,64.21
2019-03-01T17:27:56.474Z,63.21
2019-03-01T17:30:27.967Z,62.95
2019-03-01T17:32:56.507Z,62.75
2019-03-01T17:35:25.143Z,63.20
2019-03-01T17:37:53.758Z,62.77
2019-03-01T17:40:22.618Z,62.42
2019-03-01T17:42:53.180Z,63.34
2019-03-01T17:45:24.430Z,62.71
2019-03-01T17:47:55.197Z,63.04
2019-03-01T17:50:23.173Z,63.81
2019-03-01T17:52:51.806Z,65.75
2019-03-01T17:55:28.010Z,68.61
2019-03-01T17:57:56.590Z,68.39
2019-03-01T18:00:36.452Z,67.58
2019-03-01T18:03:05.787Z,67.39
2019-03-01T18:05:36.931Z,68.99
2019-03-01T18:08:05.042Z,68.42
2019-03-01T18:10:33.655Z,67.91
2019-03-01T18:13:02.188Z,68.83
2019-03-01T18:15:30.802Z,68.24
2019-03-01T18:17:59.416Z,68.95
2019-03-01T18:20:28.054Z,69.86
2019-03-01T18:22:59.354Z,71.04
2019-03-01T18:25:27.230Z,70.26
2019-03-01T18:27:55.758Z,70.03
2019-03-01T18:30:30.022Z,70.25
2019-03-01T18:32:58.702Z,70.53
2019-03-01T18:35:27.309Z,70.75
2019-03-01T18:37:56.166Z,70.62
2019-03-01T18:40:24.773Z,71.48
2019-03-01T18:42:53.418Z,70.62
2019-03-01T18:45:23.061Z,70.19
2019-03-01T18:47:51.681Z,69.60
2019-03-01T18:50:33.817Z,69.27
2019-03-01T18:53:04.009Z,69.54
2019-03-01T18:55:32.871Z,70.68
2019-03-01T18:58:01.464Z,72.09
2019-03-01T19:00:36.894Z,71.43
2019-03-01T19:03:06.214Z,70.91
2019-03-01T19:05:36.609Z,70.81
2019-03-01T19:08:06.157Z,71.79
2019-03-01T19:10:35.481Z,71.77
2019-03-01T19:13:04.184Z,71.22
2019-03-01T19:15:32.818Z,70.87
2019-03-01T19:18:01.540Z,71.05
2019-03-01T19:20:41.534Z,70.57
2019-03-01T19:23:08.688Z,70.22
2019-03-01T19:25:37.261Z,70.16
2019-03-01T19:28:05.871Z,69.83
2019-03-01T19:30:34.487Z,69.82
2019-03-01T19:33:03.415Z,69.32
2019-03-01T19:35:32.051Z,69.20
2019-03-01T19:38:00.652Z,68.20
2019-03-01T19:40:29.293Z,68.30
2019-03-01T19:42:57.903Z,68.15
2019-03-01T19:45:26.508Z,67.54
2019-03-01T19:48:01.560Z,67.56
2019-03-01T19:50:26.784Z,67.21
2019-03-01T19:52:55.420Z,67.37
2019-03-01T19:55:24.042Z,67.10
2019-03-01T19:57:52.541Z,67.01
2019-03-01T20:00:31.983Z,66.72
2019-03-01T20:03:00.464Z,66.37
2019-03-01T20:05:31.642Z,66.32
2019-03-01T20:08:01.632Z,66.54
2019-03-01T20:10:30.244Z,66.51
2019-03-01T20:12:58.851Z,66.33
2019-03-01T20:15:28.791Z,66.19
2019-03-01T20:17:57.407Z,65.14
2019-03-01T20:20:29.851Z,65.64
2019-03-01T20:22:57.764Z,65.81
2019-03-01T20:25:26.294Z,65.41
2019-03-01T20:27:54.863Z,65.42
2019-03-01T20:30:31.173Z,65.20
2019-03-01T20:32:59.721Z,64.82
2019-03-01T20:35:28.358Z,64.47
2019-03-01T20:38:00.051Z,64.39
2019-03-01T20:40:28.249Z,63.99
2019-03-01T20:43:00.451Z,64.30
2019-03-01T20:45:38.612Z,64.00
2019-03-01T20:48:07.251Z,63.85
2019-03-01T20:50:36.638Z,63.99
2019-03-01T20:53:05.360Z,63.83
2019-03-01T20:55:37.144Z,63.93
2019-03-01T20:58:04.399Z,63.58
2019-03-01T21:00:33.001Z,63.69
2019-03-01T21:03:01.547Z,63.89
2019-03-01T21:05:30.556Z,63.96
2019-03-01T21:07:59.497Z,63.98
2019-03-01T21:10:32.581Z,64.42
2019-03-01T21:13:01.122Z,64.18
2019-03-01T21:15:29.860Z,64.16
2019-03-01T21:17:58.822Z,64.44
2019-03-01T21:20:27.576Z,64.37
2019-03-01T21:22:56.353Z,64.51
2019-03-01T21:25:25.594Z,64.26
2019-03-01T21:27:54.197Z,64.46
2019-03-01T21:30:30.967Z,64.51
2019-03-01T21:32:59.570Z,64.80
2019-03-01T21:35:28.300Z,64.76
2019-03-01T21:37:57.107Z,64.50
2019-03-01T21:40:25.960Z,65.19
2019-03-01T21:42:59.844Z,64.96
2019-03-01T21:45:26.792Z,64.75
2019-03-01T21:47:55.394Z,65.19
2019-03-01T21:50:23.958Z,64.84
2019-03-01T21:52:52.617Z,64.96
2019-03-01T21:55:28.587Z,65.01
2019-03-01T21:57:56.320Z,65.17
2019-03-01T22:00:31.365Z,65.59
2019-03-01T22:02:59.137Z,65.10
2019-03-01T22:05:27.859Z,64.84
2019-03-01T22:07:56.466Z,64.77
2019-03-01T22:10:25.029Z,64.81
2019-03-01T22:12:56.881Z,64.62
2019-03-01T22:15:27.718Z,64.51
2019-03-01T22:17:56.778Z,64.20
2019-03-01T22:20:25.425Z,64.05
2019-03-01T22:22:54.074Z,63.76
2019-03-01T22:25:22.780Z,63.95
2019-03-01T22:27:51.435Z,64.09
2019-03-01T22:30:33.099Z,64.01
2019-03-01T22:33:01.624Z,64.63
2019-03-01T22:35:30.176Z,64.18
2019-03-01T22:38:01.006Z,63.78
2019-03-01T22:40:29.513Z,64.41
2019-03-01T22:42:58.284Z,64.51
2019-03-01T22:45:26.889Z,64.30
2019-03-01T22:47:55.389Z,64.48
2019-03-01T22:50:24.887Z,64.57
2019-03-01T22:52:53.504Z,64.44
2019-03-01T22:55:22.119Z,64.40
2019-03-01T22:57:50.784Z,64.70
2019-03-01T23:00:29.949Z,64.34
2019-03-01T23:02:58.687Z,64.40
2019-03-01T23:05:27.293Z,63.90
2019-03-01T23:07:56.799Z,63.82
2019-03-01T23:10:26.033Z,63.12
2019-03-01T23:12:54.574Z,63.35
2019-03-01T23:15:23.212Z,63.19
2019-03-01T23:17:51.761Z,63.30
2019-03-01T23:20:26.321Z,63.64
2019-03-01T23:22:50.589Z,62.76
2019-03-01T23:25:19.101Z,62.66
2019-03-01T23:27:47.647Z,62.89
2019-03-01T23:30:17.396Z,62.37
2019-03-01T23:32:48.762Z,62.27
2019-03-01T23:35:18.161Z,62.34
2019-03-01T23:37:46.611Z,62.42
2019-03-01T23:40:15.625Z,62.02
2019-03-01T23:42:44.186Z,62.19
2019-03-01T23:45:13.681Z,62.38
2019-03-01T23:47:43.151Z,62.07
2019-03-01T23:50:11.771Z,62.01
2019-03-01T23:52:40.266Z,62.14
2019-03-01T23:55:09.276Z,62.44
2019-03-01T23:57:40.883Z,63.10
